sensor_id;sensor_type;location;lat;lon;timestamp;temperature;humidity
20773;DHT22;10546;50.674;4.616;2023-12-22T06:51:25;8.80;99.90
20773;DHT22;10546;50.674;4.616;2023-12-22T06:53:56;8.80;99.90
20773;DHT22;10546;50.674;4.616;2023-12-22T06:56:27;8.90;99.90
20773;DHT22;10546;50.674;4.616;2023-12-22T06:58:54;8.90;99.90
20773;DHT22;10546;50.674;4.616;2023-12-22T07:01:32;8.90;99.90
20773;DHT22;10546;50.674;4.616;2023-12-22T07:03:59;8.90;99.90
20773;DHT22;10546;50.674;4.616;2023-12-22T07:06:34;8.90;99.90
20773;DHT22;10546;50.674;4.616;2023-12-22T07:11:38;8.90;99.90
20773;DHT22;10546;50.674;4.616;2023-12-22T07:14:04;8.90;99.90
20773;DHT22;10546;50.674;4.616;2023-12-22T07:16:29;8.80;99.90
20773;DHT22;10546;50.674;4.616;2023-12-22T07:18:55;8.90;99.90
20773;DHT22;10546;50.674;4.616;2023-12-22T07:21:21;9.00;99.90
20773;DHT22;10546;50.674;4.616;2023-12-22T07:23:46;8.90;99.90
20773;DHT22;10546;50.674;4.616;2023-12-22T07:26:12;8.90;99.90
20773;DHT22;10546;50.674;4.616;2023-12-22T07:28:38;9.00;99.90
20773;DHT22;10546;50.674;4.616;2023-12-22T07:31:04;8.90;99.90
20773;DHT22;10546;50.674;4.616;2023-12-22T07:33:31;9.00;99.90
20773;DHT22;10546;50.674;4.616;2023-12-22T07:35:56;9.00;99.90
20773;DHT22;10546;50.674;4.616;2023-12-22T07:38:22;9.00;99.90
20773;DHT22;10546;50.674;4.616;2023-12-22T07:40:47;9.00;99.90
20773;DHT22;10546;50.674;4.616;2023-12-22T07:43:13;9.00;99.90
20773;DHT22;10546;50.674;4.616;2023-12-22T07:45:39;9.10;99.90
20773;DHT22;10546;50.674;4.616;2023-12-22T07:48:05;9.10;99.90
20773;DHT22;10546;50.674;4.616;2023-12-22T07:50:32;9.20;99.90
20773;DHT22;10546;50.674;4.616;2023-12-22T07:52:58;9.20;99.90
20773;DHT22;10546;50.674;4.616;2023-12-22T07:55:24;9.10;99.90
20773;DHT22;10546;50.674;4.616;2023-12-22T07:57:50;9.20;99.90
20773;DHT22;10546;50.674;4.616;2023-12-22T08:00:17;9.20;99.90
20773;DHT22;10546;50.674;4.616;2023-12-22T08:02:43;9.20;99.90
20773;DHT22;10546;50.674;4.616;2023-12-22T08:05:09;9.20;99.90
20773;DHT22;10546;50.674;4.616;2023-12-22T08:07:36;9.20;99.90
20773;DHT22;10546;50.674;4.616;2023-12-22T08:10:02;9.20;99.90
20773;DHT22;10546;50.674;4.616;2023-12-22T08:12:28;9.20;99.90
20773;DHT22;10546;50.674;4.616;2023-12-22T08:14:54;9.10;99.90
20773;DHT22;10546;50.674;4.616;2023-12-22T08:17:20;9.20;99.90
20773;DHT22;10546;50.674;4.616;2023-12-22T08:19:45;9.20;99.90
20773;DHT22;10546;50.674;4.616;2023-12-22T08:22:11;9.20;99.90
20773;DHT22;10546;50.674;4.616;2023-12-22T08:24:41;9.20;99.90
20773;DHT22;10546;50.674;4.616;2023-12-22T08:27:07;9.20;99.90
20773;DHT22;10546;50.674;4.616;2023-12-22T08:29:33;9.20;99.90
20773;DHT22;10546;50.674;4.616;2023-12-22T08:31:59;9.10;99.90
20773;DHT22;10546;50.674;4.616;2023-12-22T08:34:26;9.10;99.90
20773;DHT22;10546;50.674;4.616;2023-12-22T08:36:51;9.10;99.90
20773;DHT22;10546;50.674;4.616;2023-12-22T08:39:17;9.10;99.90
20773;DHT22;10546;50.674;4.616;2023-12-22T08:41:43;9.10;99.90
20773;DHT22;10546;50.674;4.616;2023-12-22T08:44:08;9.10;99.90
20773;DHT22;10546;50.674;4.616;2023-12-22T08:46:34;9.10;99.90
20773;DHT22;10546;50.674;4.616;2023-12-22T08:49:02;9.10;99.90
20773;DHT22;10546;50.674;4.616;2023-12-22T08:51:28;9.20;99.90
20773;DHT22;10546;50.674;4.616;2023-12-22T08:53:54;9.10;99.90
20773;DHT22;10546;50.674;4.616;2023-12-22T08:56:23;9.10;99.90
20773;DHT22;10546;50.674;4.616;2023-12-22T08:58:51;9.20;99.90
20773;DHT22;10546;50.674;4.616;2023-12-22T09:01:18;9.20;99.90
20773;DHT22;10546;50.674;4.616;2023-12-22T09:03:43;9.30;99.90
20773;DHT22;10546;50.674;4.616;2023-12-22T09:06:19;9.30;99.90
20773;DHT22;10546;50.674;4.616;2023-12-22T09:08:45;9.30;99.90
20773;DHT22;10546;50.674;4.616;2023-12-22T09:11:12;9.30;99.90
20773;DHT22;10546;50.674;4.616;2023-12-22T09:13:38;9.30;99.90
20773;DHT22;10546;50.674;4.616;2023-12-22T09:16:04;9.40;99.90
20773;DHT22;10546;50.674;4.616;2023-12-22T09:18:31;9.50;99.90
20773;DHT22;10546;50.674;4.616;2023-12-22T09:20:57;9.40;99.90
20773;DHT22;10546;50.674;4.616;2023-12-22T09:23:23;9.50;99.90
20773;DHT22;10546;50.674;4.616;2023-12-22T09:25:49;9.40;99.90
20773;DHT22;10546;50.674;4.616;2023-12-22T09:28:14;9.40;99.90
20773;DHT22;10546;50.674;4.616;2023-12-22T09:30:40;9.50;99.90
20773;DHT22;10546;50.674;4.616;2023-12-22T09:33:07;9.50;99.90
20773;DHT22;10546;50.674;4.616;2023-12-22T09:35:33;9.60;99.90
20773;DHT22;10546;50.674;4.616;2023-12-22T09:37:59;9.60;99.90
20773;DHT22;10546;50.674;4.616;2023-12-22T09:40:24;9.50;99.90
20773;DHT22;10546;50.674;4.616;2023-12-22T09:42:50;9.60;99.90
20773;DHT22;10546;50.674;4.616;2023-12-22T09:45:21;9.70;99.90
20773;DHT22;10546;50.674;4.616;2023-12-22T09:47:48;9.70;99.90
20773;DHT22;10546;50.674;4.616;2023-12-22T09:50:15;9.70;99.90
20773;DHT22;10546;50.674;4.616;2023-12-22T09:52:42;9.70;99.90
20773;DHT22;10546;50.674;4.616;2023-12-22T09:55:09;9.70;99.90
20773;DHT22;10546;50.674;4.616;2023-12-22T09:57:37;9.80;99.90
20773;DHT22;10546;50.674;4.616;2023-12-22T10:00:08;9.70;99.90
20773;DHT22;10546;50.674;4.616;2023-12-22T10:02:36;9.70;99.90
20773;DHT22;10546;50.674;4.616;2023-12-22T10:05:02;9.80;99.90
20773;DHT22;10546;50.674;4.616;2023-12-22T10:07:30;9.80;99.90
20773;DHT22;10546;50.674;4.616;2023-12-22T10:09:56;9.90;99.90
20773;DHT22;10546;50.674;4.616;2023-12-22T10:12:23;9.80;99.90
20773;DHT22;10546;50.674;4.616;2023-12-22T10:14:49;9.80;99.90
20773;DHT22;10546;50.674;4.616;2023-12-22T10:17:16;9.80;99.90
20773;DHT22;10546;50.674;4.616;2023-12-22T10:19:42;9.90;99.90
20773;DHT22;10546;50.674;4.616;2023-12-22T10:22:08;10.00;99.90
20773;DHT22;10546;50.674;4.616;2023-12-22T10:24:46;10.00;99.90
20773;DHT22;10546;50.674;4.616;2023-12-22T10:27:17;10.00;99.90
20773;DHT22;10546;50.674;4.616;2023-12-22T10:29:57;9.90;99.90
20773;DHT22;10546;50.674;4.616;2023-12-22T10:32:23;9.90;99.90
20773;DHT22;10546;50.674;4.616;2023-12-22T10:34:51;9.90;99.90
20773;DHT22;10546;50.674;4.616;2023-12-22T10:37:17;10.00;99.90
20773;DHT22;10546;50.674;4.616;2023-12-22T10:39:43;9.90;99.90
20773;DHT22;10546;50.674;4.616;2023-12-22T10:42:09;10.00;99.90
20773;DHT22;10546;50.674;4.616;2023-12-22T10:44:35;9.90;99.90
20773;DHT22;10546;50.674;4.616;2023-12-22T10:47:05;9.90;99.90
20773;DHT22;10546;50.674;4.616;2023-12-22T10:49:31;10.00;99.90
20773;DHT22;10546;50.674;4.616;2023-12-22T10:51:57;10.00;99.90
20773;DHT22;10546;50.674;4.616;2023-12-22T10:54:22;10.00;99.90
20773;DHT22;10546;50.674;4.616;2023-12-22T10:56:48;10.00;99.90
20773;DHT22;10546;50.674;4.616;2023-12-22T10:59:19;10.00;99.90
20773;DHT22;10546;50.674;4.616;2023-12-22T11:01:48;9.90;99.90
20773;DHT22;10546;50.674;4.616;2023-12-22T11:04:18;9.90;99.90
20773;DHT22;10546;50.674;4.616;2023-12-22T11:06:47;9.90;99.90
20773;DHT22;10546;50.674;4.616;2023-12-22T11:09:16;9.90;99.90
20773;DHT22;10546;50.674;4.616;2023-12-22T11:11:42;9.90;99.90
20773;DHT22;10546;50.674;4.616;2023-12-22T11:14:09;10.00;99.90
20773;DHT22;10546;50.674;4.616;2023-12-22T11:16:37;9.90;99.90
20773;DHT22;10546;50.674;4.616;2023-12-22T11:19:04;9.90;99.90
20773;DHT22;10546;50.674;4.616;2023-12-22T11:21:31;10.00;99.90
20773;DHT22;10546;50.674;4.616;2023-12-22T11:23:58;10.00;99.90
20773;DHT22;10546;50.674;4.616;2023-12-22T11:26:25;10.00;99.90
20773;DHT22;10546;50.674;4.616;2023-12-22T11:28:51;10.00;99.90
20773;DHT22;10546;50.674;4.616;2023-12-22T11:31:18;10.00;99.90
20773;DHT22;10546;50.674;4.616;2023-12-22T11:33:45;10.00;99.90
20773;DHT22;10546;50.674;4.616;2023-12-22T11:36:12;10.00;99.90
20773;DHT22;10546;50.674;4.616;2023-12-22T11:38:40;10.00;99.90
20773;DHT22;10546;50.674;4.616;2023-12-22T11:41:09;10.00;99.90
20773;DHT22;10546;50.674;4.616;2023-12-22T11:43:37;10.00;99.90
20773;DHT22;10546;50.674;4.616;2023-12-22T11:46:04;10.00;99.90
20773;DHT22;10546;50.674;4.616;2023-12-22T11:48:30;10.00;99.90
20773;DHT22;10546;50.674;4.616;2023-12-22T11:50:55;10.00;99.90
20773;DHT22;10546;50.674;4.616;2023-12-22T11:53:25;10.00;99.90
20773;DHT22;10546;50.674;4.616;2023-12-22T11:56:05;10.10;99.90
20773;DHT22;10546;50.674;4.616;2023-12-22T11:58:41;10.10;99.90
20773;DHT22;10546;50.674;4.616;2023-12-22T12:01:12;10.10;99.90
20773;DHT22;10546;50.674;4.616;2023-12-22T12:03:41;10.10;99.90
20773;DHT22;10546;50.674;4.616;2023-12-22T12:08:56;10.20;99.90
20773;DHT22;10546;50.674;4.616;2023-12-22T12:11:22;10.20;99.90
20773;DHT22;10546;50.674;4.616;2023-12-22T12:13:49;10.20;99.90
20773;DHT22;10546;50.674;4.616;2023-12-22T12:16:19;10.20;99.90
20773;DHT22;10546;50.674;4.616;2023-12-22T12:18:47;10.20;99.90
20773;DHT22;10546;50.674;4.616;2023-12-22T12:21:13;10.20;99.90
20773;DHT22;10546;50.674;4.616;2023-12-22T12:23:41;10.30;99.90
20773;DHT22;10546;50.674;4.616;2023-12-22T12:26:07;10.30;99.90
20773;DHT22;10546;50.674;4.616;2023-12-22T12:28:35;10.30;99.90
20773;DHT22;10546;50.674;4.616;2023-12-22T12:31:06;10.30;99.90
20773;DHT22;10546;50.674;4.616;2023-12-22T12:33:32;10.30;99.90
20773;DHT22;10546;50.674;4.616;2023-12-22T12:36:00;10.30;99.90
20773;DHT22;10546;50.674;4.616;2023-12-22T12:41:29;10.40;99.90
20773;DHT22;10546;50.674;4.616;2023-12-22T12:43:58;10.40;99.90
20773;DHT22;10546;50.674;4.616;2023-12-22T12:46:35;10.40;99.90
20773;DHT22;10546;50.674;4.616;2023-12-22T12:49:08;10.40;99.90
20773;DHT22;10546;50.674;4.616;2023-12-22T12:51:43;10.50;99.90
20773;DHT22;10546;50.674;4.616;2023-12-22T12:54:10;10.60;99.90
20773;DHT22;10546;50.674;4.616;2023-12-22T12:56:40;10.50;99.90
20773;DHT22;10546;50.674;4.616;2023-12-22T12:59:15;10.50;99.90
20773;DHT22;10546;50.674;4.616;2023-12-22T13:01:43;10.50;99.90
20773;DHT22;10546;50.674;4.616;2023-12-22T13:04:10;10.40;99.90
20773;DHT22;10546;50.674;4.616;2023-12-22T13:06:45;10.40;99.90
20773;DHT22;10546;50.674;4.616;2023-12-22T13:09:12;10.50;99.90
20773;DHT22;10546;50.674;4.616;2023-12-22T13:11:41;10.40;99.90
20773;DHT22;10546;50.674;4.616;2023-12-22T13:14:09;10.30;99.90
20773;DHT22;10546;50.674;4.616;2023-12-22T13:16:35;10.20;99.90
20773;DHT22;10546;50.674;4.616;2023-12-22T13:19:01;10.10;99.90
20773;DHT22;10546;50.674;4.616;2023-12-22T13:21:28;10.00;99.90
20773;DHT22;10546;50.674;4.616;2023-12-22T13:24:14;10.00;99.90
20773;DHT22;10546;50.674;4.616;2023-12-22T13:26:41;9.90;99.90
20773;DHT22;10546;50.674;4.616;2023-12-22T13:29:08;9.90;99.90
20773;DHT22;10546;50.674;4.616;2023-12-22T13:31:39;9.80;99.90
20773;DHT22;10546;50.674;4.616;2023-12-22T13:34:13;9.80;99.90
20773;DHT22;10546;50.674;4.616;2023-12-22T13:36:39;9.90;99.90
20773;DHT22;10546;50.674;4.616;2023-12-22T13:39:07;9.80;99.90
20773;DHT22;10546;50.674;4.616;2023-12-22T13:41:40;9.80;99.90
20773;DHT22;10546;50.674;4.616;2023-12-22T13:44:07;9.90;99.90
20773;DHT22;10546;50.674;4.616;2023-12-22T13:46:34;9.90;99.90
20773;DHT22;10546;50.674;4.616;2023-12-22T13:49:02;9.90;99.90
20773;DHT22;10546;50.674;4.616;2023-12-22T13:51:38;9.80;99.90
20773;DHT22;10546;50.674;4.616;2023-12-22T13:54:04;9.90;99.90
20773;DHT22;10546;50.674;4.616;2023-12-22T13:56:37;10.00;99.90
20773;DHT22;10546;50.674;4.616;2023-12-22T13:59:05;10.00;99.90
20773;DHT22;10546;50.674;4.616;2023-12-22T14:01:31;10.00;99.90
20773;DHT22;10546;50.674;4.616;2023-12-22T14:03:58;10.00;99.90
20773;DHT22;10546;50.674;4.616;2023-12-22T14:06:27;10.00;99.90
20773;DHT22;10546;50.674;4.616;2023-12-22T14:08:54;10.00;99.90
20773;DHT22;10546;50.674;4.616;2023-12-22T14:11:20;10.00;99.90
20773;DHT22;10546;50.674;4.616;2023-12-22T14:13:46;10.00;99.90
20773;DHT22;10546;50.674;4.616;2023-12-22T14:16:12;10.00;99.90
20773;DHT22;10546;50.674;4.616;2023-12-22T14:18:37;10.00;99.90
20773;DHT22;10546;50.674;4.616;2023-12-22T14:21:03;10.10;99.90
20773;DHT22;10546;50.674;4.616;2023-12-22T14:23:30;10.00;99.90
20773;DHT22;10546;50.674;4.616;2023-12-22T14:25:56;10.00;99.90
20773;DHT22;10546;50.674;4.616;2023-12-22T14:28:22;10.00;99.90
20773;DHT22;10546;50.674;4.616;2023-12-22T14:30:48;9.90;99.90
20773;DHT22;10546;50.674;4.616;2023-12-22T14:33:14;9.90;99.90
20773;DHT22;10546;50.674;4.616;2023-12-22T14:35:40;9.90;99.90
20773;DHT22;10546;50.674;4.616;2023-12-22T14:38:06;9.90;99.90
20773;DHT22;10546;50.674;4.616;2023-12-22T14:40:31;9.90;99.90
20773;DHT22;10546;50.674;4.616;2023-12-22T14:42:58;9.90;99.90
20773;DHT22;10546;50.674;4.616;2023-12-22T14:45:24;9.90;99.90
20773;DHT22;10546;50.674;4.616;2023-12-22T14:47:50;9.90;99.90
20773;DHT22;10546;50.674;4.616;2023-12-22T14:50:17;10.00;99.90
20773;DHT22;10546;50.674;4.616;2023-12-22T14:52:42;10.00;99.90
20773;DHT22;10546;50.674;4.616;2023-12-22T14:55:08;10.00;99.90
20773;DHT22;10546;50.674;4.616;2023-12-22T14:57:34;10.00;99.90
20773;DHT22;10546;50.674;4.616;2023-12-22T15:00:00;10.00;99.90
20773;DHT22;10546;50.674;4.616;2023-12-22T15:02:26;10.10;99.90
20773;DHT22;10546;50.674;4.616;2023-12-22T15:04:52;10.10;99.90
20773;DHT22;10546;50.674;4.616;2023-12-22T15:07:18;10.10;99.90
20773;DHT22;10546;50.674;4.616;2023-12-22T15:09:45;10.20;99.90
20773;DHT22;10546;50.674;4.616;2023-12-22T15:12:17;10.20;99.90
20773;DHT22;10546;50.674;4.616;2023-12-22T15:14:47;10.20;99.90
20773;DHT22;10546;50.674;4.616;2023-12-22T15:17:14;10.20;99.90
20773;DHT22;10546;50.674;4.616;2023-12-22T15:19:58;10.20;99.90
20773;DHT22;10546;50.674;4.616;2023-12-22T15:22:24;10.30;99.90
20773;DHT22;10546;50.674;4.616;2023-12-22T15:24:50;10.30;99.90
20773;DHT22;10546;50.674;4.616;2023-12-22T15:27:16;10.30;99.90
20773;DHT22;10546;50.674;4.616;2023-12-22T15:29:41;10.30;99.90
20773;DHT22;10546;50.674;4.616;2023-12-22T15:32:09;10.30;99.90
20773;DHT22;10546;50.674;4.616;2023-12-22T15:34:35;10.40;99.90
20773;DHT22;10546;50.674;4.616;2023-12-22T15:37:01;10.40;99.90
20773;DHT22;10546;50.674;4.616;2023-12-22T15:39:27;10.30;99.90
20773;DHT22;10546;50.674;4.616;2023-12-22T15:41:53;10.20;99.90
20773;DHT22;10546;50.674;4.616;2023-12-22T15:44:19;10.20;99.90
20773;DHT22;10546;50.674;4.616;2023-12-22T15:46:44;10.20;99.90
20773;DHT22;10546;50.674;4.616;2023-12-22T15:49:10;10.20;99.90
20773;DHT22;10546;50.674;4.616;2023-12-22T15:51:36;10.30;99.90
20773;DHT22;10546;50.674;4.616;2023-12-22T15:54:01;10.30;99.90
20773;DHT22;10546;50.674;4.616;2023-12-22T15:56:28;10.20;99.90
20773;DHT22;10546;50.674;4.616;2023-12-22T15:58:53;10.10;99.90
20773;DHT22;10546;50.674;4.616;2023-12-22T16:01:19;10.10;99.90
20773;DHT22;10546;50.674;4.616;2023-12-22T16:03:44;10.10;99.90
20773;DHT22;10546;50.674;4.616;2023-12-22T16:06:16;10.10;99.90
20773;DHT22;10546;50.674;4.616;2023-12-22T16:08:41;10.10;99.90
20773;DHT22;10546;50.674;4.616;2023-12-22T16:11:07;10.20;99.90
20773;DHT22;10546;50.674;4.616;2023-12-22T16:13:33;10.20;99.90
20773;DHT22;10546;50.674;4.616;2023-12-22T16:16:00;10.20;99.90
20773;DHT22;10546;50.674;4.616;2023-12-22T16:18:26;10.30;99.90
20773;DHT22;10546;50.674;4.616;2023-12-22T16:20:52;10.30;99.90
20773;DHT22;10546;50.674;4.616;2023-12-22T16:23:18;10.40;99.90
20773;DHT22;10546;50.674;4.616;2023-12-22T16:25:54;10.50;99.90
20773;DHT22;10546;50.674;4.616;2023-12-22T16:28:24;10.50;99.90
20773;DHT22;10546;50.674;4.616;2023-12-22T16:30:49;10.60;99.90
20773;DHT22;10546;50.674;4.616;2023-12-22T16:33:16;10.50;99.90
20773;DHT22;10546;50.674;4.616;2023-12-22T16:35:42;10.50;99.90
20773;DHT22;10546;50.674;4.616;2023-12-22T16:38:08;10.50;99.90
20773;DHT22;10546;50.674;4.616;2023-12-22T16:40:34;10.50;99.90
20773;DHT22;10546;50.674;4.616;2023-12-22T16:42:59;10.50;99.90
20773;DHT22;10546;50.674;4.616;2023-12-22T16:45:25;10.60;99.90
20773;DHT22;10546;50.674;4.616;2023-12-22T16:47:52;10.60;99.90
20773;DHT22;10546;50.674;4.616;2023-12-22T16:50:18;10.60;99.90
20773;DHT22;10546;50.674;4.616;2023-12-22T16:52:44;10.50;99.90
20773;DHT22;10546;50.674;4.616;2023-12-22T16:55:10;10.50;99.90
20773;DHT22;10546;50.674;4.616;2023-12-22T16:57:36;10.50;99.90
20773;DHT22;10546;50.674;4.616;2023-12-22T17:00:03;10.60;99.90
20773;DHT22;10546;50.674;4.616;2023-12-22T17:02:29;10.60;99.90
20773;DHT22;10546;50.674;4.616;2023-12-22T17:04:55;10.60;99.90
20773;DHT22;10546;50.674;4.616;2023-12-22T17:07:20;10.60;99.90
20773;DHT22;10546;50.674;4.616;2023-12-22T17:09:46;10.70;99.90
20773;DHT22;10546;50.674;4.616;2023-12-22T17:12:12;10.50;99.90
20773;DHT22;10546;50.674;4.616;2023-12-22T17:14:38;10.40;99.90
20773;DHT22;10546;50.674;4.616;2023-12-22T17:17:03;10.40;99.90
20773;DHT22;10546;50.674;4.616;2023-12-22T17:19:29;10.40;99.90
20773;DHT22;10546;50.674;4.616;2023-12-22T17:21:55;10.40;99.90
20773;DHT22;10546;50.674;4.616;2023-12-22T17:24:21;10.30;99.90
20773;DHT22;10546;50.674;4.616;2023-12-22T17:26:46;10.20;99.90
20773;DHT22;10546;50.674;4.616;2023-12-22T17:29:12;10.10;99.90
20773;DHT22;10546;50.674;4.616;2023-12-22T17:31:37;10.10;99.90
20773;DHT22;10546;50.674;4.616;2023-12-22T17:34:03;10.00;99.90
20773;DHT22;10546;50.674;4.616;2023-12-22T17:36:29;10.10;99.90
20773;DHT22;10546;50.674;4.616;2023-12-22T17:38:58;10.10;99.90
20773;DHT22;10546;50.674;4.616;2023-12-22T17:41:24;10.10;99.90
20773;DHT22;10546;50.674;4.616;2023-12-22T17:43:50;10.10;99.90
20773;DHT22;10546;50.674;4.616;2023-12-22T17:46:16;10.20;99.90
20773;DHT22;10546;50.674;4.616;2023-12-22T17:48:42;10.20;99.90
20773;DHT22;10546;50.674;4.616;2023-12-22T17:51:08;10.20;99.90
20773;DHT22;10546;50.674;4.616;2023-12-22T17:53:34;10.30;99.90
20773;DHT22;10546;50.674;4.616;2023-12-22T17:55:59;10.30;99.90
20773;DHT22;10546;50.674;4.616;2023-12-22T17:58:25;10.40;99.90
20773;DHT22;10546;50.674;4.616;2023-12-22T18:00:51;10.30;99.90
20773;DHT22;10546;50.674;4.616;2023-12-22T18:03:17;10.40;99.90
20773;DHT22;10546;50.674;4.616;2023-12-22T18:05:42;10.30;99.90
20773;DHT22;10546;50.674;4.616;2023-12-22T18:08:11;10.30;99.90
20773;DHT22;10546;50.674;4.616;2023-12-22T18:10:37;10.30;99.90
20773;DHT22;10546;50.674;4.616;2023-12-22T18:13:05;10.20;99.90
20773;DHT22;10546;50.674;4.616;2023-12-22T18:15:31;10.20;99.90
20773;DHT22;10546;50.674;4.616;2023-12-22T18:17:57;10.20;99.90
20773;DHT22;10546;50.674;4.616;2023-12-22T18:20:22;10.10;99.90
20773;DHT22;10546;50.674;4.616;2023-12-22T18:22:49;10.10;99.90
20773;DHT22;10546;50.674;4.616;2023-12-22T18:25:14;10.20;99.90
20773;DHT22;10546;50.674;4.616;2023-12-22T18:27:40;10.30;99.90
20773;DHT22;10546;50.674;4.616;2023-12-22T18:30:06;10.30;99.90
20773;DHT22;10546;50.674;4.616;2023-12-22T18:32:32;10.30;99.90
20773;DHT22;10546;50.674;4.616;2023-12-22T18:35:00;10.30;99.90
20773;DHT22;10546;50.674;4.616;2023-12-22T18:37:25;10.40;99.90
20773;DHT22;10546;50.674;4.616;2023-12-22T18:39:51;10.50;99.90
20773;DHT22;10546;50.674;4.616;2023-12-22T18:42:17;10.50;99.90
20773;DHT22;10546;50.674;4.616;2023-12-22T18:44:43;10.50;99.90
20773;DHT22;10546;50.674;4.616;2023-12-22T18:47:08;10.40;99.90
20773;DHT22;10546;50.674;4.616;2023-12-22T18:49:34;10.50;99.90
20773;DHT22;10546;50.674;4.616;2023-12-22T18:52:00;10.50;99.90
20773;DHT22;10546;50.674;4.616;2023-12-22T18:54:27;10.40;99.90
20773;DHT22;10546;50.674;4.616;2023-12-22T18:56:55;10.40;99.90
20773;DHT22;10546;50.674;4.616;2023-12-22T18:59:21;10.50;99.90
20773;DHT22;10546;50.674;4.616;2023-12-22T19:01:46;10.40;99.90
20773;DHT22;10546;50.674;4.616;2023-12-22T19:04:12;10.40;99.90
20773;DHT22;10546;50.674;4.616;2023-12-22T19:06:38;10.40;99.90
20773;DHT22;10546;50.674;4.616;2023-12-22T19:09:04;10.40;99.90
20773;DHT22;10546;50.674;4.616;2023-12-22T19:11:29;10.40;99.90
20773;DHT22;10546;50.674;4.616;2023-12-22T19:13:55;10.40;99.90
20773;DHT22;10546;50.674;4.616;2023-12-22T19:16:21;10.40;99.90
20773;DHT22;10546;50.674;4.616;2023-12-22T19:18:48;10.50;99.90
20773;DHT22;10546;50.674;4.616;2023-12-22T19:21:16;10.50;99.90
20773;DHT22;10546;50.674;4.616;2023-12-22T19:23:42;10.50;99.90
20773;DHT22;10546;50.674;4.616;2023-12-22T19:26:08;10.50;99.90
20773;DHT22;10546;50.674;4.616;2023-12-22T19:28:33;10.40;99.90
20773;DHT22;10546;50.674;4.616;2023-12-22T19:30:59;10.50;99.90
20773;DHT22;10546;50.674;4.616;2023-12-22T19:33:25;10.40;99.90
20773;DHT22;10546;50.674;4.616;2023-12-22T19:35:51;10.40;99.90
20773;DHT22;10546;50.674;4.616;2023-12-22T19:38:17;10.40;99.90
20773;DHT22;10546;50.674;4.616;2023-12-22T19:40:48;10.50;99.90
20773;DHT22;10546;50.674;4.616;2023-12-22T19:43:15;10.40;99.90
20773;DHT22;10546;50.674;4.616;2023-12-22T19:45:41;10.30;99.90
20773;DHT22;10546;50.674;4.616;2023-12-22T19:48:07;10.40;99.90
20773;DHT22;10546;50.674;4.616;2023-12-22T19:50:33;10.40;99.90
20773;DHT22;10546;50.674;4.616;2023-12-22T19:52:59;10.40;99.90
20773;DHT22;10546;50.674;4.616;2023-12-22T19:55:28;10.40;99.90
20773;DHT22;10546;50.674;4.616;2023-12-22T19:57:54;10.40;99.90
20773;DHT22;10546;50.674;4.616;2023-12-22T20:00:20;10.30;99.90
20773;DHT22;10546;50.674;4.616;2023-12-22T20:02:46;10.30;99.90
20773;DHT22;10546;50.674;4.616;2023-12-22T20:05:12;10.30;99.90
20773;DHT22;10546;50.674;4.616;2023-12-22T20:07:38;10.30;99.90
20773;DHT22;10546;50.674;4.616;2023-12-22T20:10:05;10.30;99.90
20773;DHT22;10546;50.674;4.616;2023-12-22T20:12:32;10.30;99.90
20773;DHT22;10546;50.674;4.616;2023-12-22T20:14:58;10.40;99.90
20773;DHT22;10546;50.674;4.616;2023-12-22T20:17:23;10.40;99.90
20773;DHT22;10546;50.674;4.616;2023-12-22T20:19:49;10.40;99.90
20773;DHT22;10546;50.674;4.616;2023-12-22T20:22:15;10.30;99.90
20773;DHT22;10546;50.674;4.616;2023-12-22T20:24:41;10.30;99.90
20773;DHT22;10546;50.674;4.616;2023-12-22T20:27:07;10.40;99.90
20773;DHT22;10546;50.674;4.616;2023-12-22T20:29:32;10.40;99.90
20773;DHT22;10546;50.674;4.616;2023-12-22T20:31:58;10.40;99.90
20773;DHT22;10546;50.674;4.616;2023-12-22T20:34:24;10.40;99.90
20773;DHT22;10546;50.674;4.616;2023-12-22T20:36:49;10.40;99.90
20773;DHT22;10546;50.674;4.616;2023-12-22T20:39:15;10.40;99.90
20773;DHT22;10546;50.674;4.616;2023-12-22T20:41:41;10.40;99.90
20773;DHT22;10546;50.674;4.616;2023-12-22T20:44:07;10.40;99.90
20773;DHT22;10546;50.674;4.616;2023-12-22T20:46:33;10.40;99.90
20773;DHT22;10546;50.674;4.616;2023-12-22T20:48:59;10.40;99.90
20773;DHT22;10546;50.674;4.616;2023-12-22T20:51:24;10.50;99.90
20773;DHT22;10546;50.674;4.616;2023-12-22T20:53:50;10.40;99.90
20773;DHT22;10546;50.674;4.616;2023-12-22T20:56:19;10.40;99.90
20773;DHT22;10546;50.674;4.616;2023-12-22T20:58:45;10.50;99.90
20773;DHT22;10546;50.674;4.616;2023-12-22T21:01:11;10.50;99.90
20773;DHT22;10546;50.674;4.616;2023-12-22T21:03:38;10.50;99.90
20773;DHT22;10546;50.674;4.616;2023-12-22T21:06:06;10.40;99.90
20773;DHT22;10546;50.674;4.616;2023-12-22T21:08:32;10.40;99.90
20773;DHT22;10546;50.674;4.616;2023-12-22T21:10:58;10.40;99.90
20773;DHT22;10546;50.674;4.616;2023-12-22T21:13:24;10.40;99.90
20773;DHT22;10546;50.674;4.616;2023-12-22T21:15:50;10.40;99.90
20773;DHT22;10546;50.674;4.616;2023-12-22T21:18:15;10.40;99.90
20773;DHT22;10546;50.674;4.616;2023-12-22T21:20:41;10.50;99.90
20773;DHT22;10546;50.674;4.616;2023-12-22T21:23:07;10.40;99.90
20773;DHT22;10546;50.674;4.616;2023-12-22T21:25:34;10.40;99.90
20773;DHT22;10546;50.674;4.616;2023-12-22T21:28:00;10.50;99.90
20773;DHT22;10546;50.674;4.616;2023-12-22T21:30:25;10.50;99.90
20773;DHT22;10546;50.674;4.616;2023-12-22T21:32:54;10.40;99.90
20773;DHT22;10546;50.674;4.616;2023-12-22T21:35:19;10.40;99.90
20773;DHT22;10546;50.674;4.616;2023-12-22T21:37:45;10.30;99.90
20773;DHT22;10546;50.674;4.616;2023-12-22T21:40:12;10.40;99.90
20773;DHT22;10546;50.674;4.616;2023-12-22T21:42:38;10.50;99.90
20773;DHT22;10546;50.674;4.616;2023-12-22T21:45:06;10.50;99.90
20773;DHT22;10546;50.674;4.616;2023-12-22T21:47:32;10.50;99.90
20773;DHT22;10546;50.674;4.616;2023-12-22T21:49:58;10.50;99.90
20773;DHT22;10546;50.674;4.616;2023-12-22T21:52:23;10.50;99.90
20773;DHT22;10546;50.674;4.616;2023-12-22T21:54:50;10.50;99.90
20773;DHT22;10546;50.674;4.616;2023-12-22T21:57:17;10.40;99.90
20773;DHT22;10546;50.674;4.616;2023-12-22T21:59:43;10.40;99.90
20773;DHT22;10546;50.674;4.616;2023-12-22T22:02:08;10.50;99.90
20773;DHT22;10546;50.674;4.616;2023-12-22T22:04:34;10.40;99.90
20773;DHT22;10546;50.674;4.616;2023-12-22T22:07:00;10.40;99.90
20773;DHT22;10546;50.674;4.616;2023-12-22T22:09:25;10.40;99.90
20773;DHT22;10546;50.674;4.616;2023-12-22T22:11:51;10.40;99.90
20773;DHT22;10546;50.674;4.616;2023-12-22T22:14:17;10.50;99.90
20773;DHT22;10546;50.674;4.616;2023-12-22T22:16:42;10.50;99.90
20773;DHT22;10546;50.674;4.616;2023-12-22T22:19:08;10.50;99.90
20773;DHT22;10546;50.674;4.616;2023-12-22T22:21:37;10.40;99.90
20773;DHT22;10546;50.674;4.616;2023-12-22T22:24:04;10.30;99.90
20773;DHT22;10546;50.674;4.616;2023-12-22T22:26:30;10.20;99.90
20773;DHT22;10546;50.674;4.616;2023-12-22T22:28:58;10.20;99.90
20773;DHT22;10546;50.674;4.616;2023-12-22T22:31:24;10.30;99.90